Salem, Indiana
Current Conditions -  °F | °C
As of 4:53 AM on Thursday 18 Dec 2014 (Local Time) from KLOU Reporting Station
Overcast Overcast  
Wind Chill: 29°   Ceiling: 1800
Heat Index: 29°   Visibility: 10mi
Dew Point: 22°   Wind: 3mph
Humidity: 75%   Direction: 40°NE
Pressure: 30.27"   Gusts: NA
Location:  38.61°N, 86.1°W
Report Text: KLOU 180953Z AUTO 04003KT 10SM OVC018 M02/M06 A3027 RMK AO2 SLP254 T10171056
Loading
Personal Weather Stations






























Interactive Weather Map New forecast layout! Learn more

10-Day Weather Forecast

Advertisements
Track Severe Weather on mobile